createdAt,value
2018-06-19T00:00:35.410Z,19.15
2018-06-19T00:03:05.199Z,19.13
2018-06-19T00:05:34.147Z,19.11
2018-06-19T00:08:04.176Z,19.78
2018-06-19T00:10:36.040Z,19.30
2018-06-19T00:13:06.050Z,19.18
2018-06-19T00:15:37.317Z,19.13
2018-06-19T00:18:06.372Z,19.09
2018-06-19T00:20:35.644Z,19.03
2018-06-19T00:23:05.511Z,18.98
2018-06-19T00:25:34.361Z,19.63
2018-06-19T00:28:04.678Z,19.14
2018-06-19T00:30:34.976Z,19.04
2018-06-19T00:33:03.968Z,18.98
2018-06-19T00:35:33.782Z,18.96
2018-06-19T00:38:08.120Z,18.95
2018-06-19T00:40:48.365Z,18.93
2018-06-19T00:43:18.359Z,18.92
2018-06-19T00:45:51.049Z,19.62
2018-06-19T00:48:23.945Z,19.14
2018-06-19T00:50:52.988Z,19.06
2018-06-19T00:53:22.170Z,19.03
2018-06-19T00:55:54.552Z,19.71
2018-06-19T00:58:30.524Z,19.24
2018-06-19T01:01:01.981Z,19.15
2018-06-19T01:03:33.339Z,19.09
2018-06-19T01:08:51.041Z,19.01
2018-06-19T01:11:20.183Z,18.99
2018-06-19T01:13:49.829Z,18.97
2018-06-19T01:16:18.903Z,18.95
2018-06-19T01:18:49.185Z,18.94
2018-06-19T01:21:19.732Z,18.95
2018-06-19T01:23:49.197Z,18.95
2018-06-19T01:26:18.542Z,19.64
2018-06-19T01:28:47.782Z,19.83
2018-06-19T01:31:17.375Z,19.97
2018-06-19T01:33:46.422Z,19.45
2018-06-19T01:36:16.190Z,19.31
2018-06-19T01:38:45.765Z,19.93
2018-06-19T01:41:16.065Z,19.44
2018-06-19T01:43:45.822Z,19.33
2018-06-19T01:46:14.406Z,19.95
2018-06-19T01:48:43.106Z,19.46
2018-06-19T01:51:11.847Z,19.35
2018-06-19T01:53:40.621Z,19.29
2018-06-19T01:56:09.779Z,19.24
2018-06-19T01:58:38.988Z,19.90
2018-06-19T02:01:08.744Z,19.42
2018-06-19T02:03:38.733Z,19.99
2018-06-19T02:06:08.608Z,20.12
2018-06-19T02:08:37.516Z,19.59
2018-06-19T02:11:07.265Z,19.43
2018-06-19T02:13:36.768Z,20.01
2018-06-19T02:16:06.616Z,19.51
2018-06-19T02:18:36.351Z,19.38
2018-06-19T02:21:05.654Z,19.30
2018-06-19T02:23:36.465Z,19.22
2018-06-19T02:26:11.438Z,19.13
2018-06-19T02:28:40.413Z,19.06
2018-06-19T02:31:09.336Z,18.99
2018-06-19T02:33:40.593Z,19.62
2018-06-19T02:36:07.385Z,19.12
2018-06-19T02:38:36.912Z,18.97
2018-06-19T02:41:06.013Z,18.90
2018-06-19T02:43:35.470Z,18.85
2018-06-19T02:46:05.141Z,18.81
2018-06-19T02:48:37.421Z,18.78
2018-06-19T02:51:20.819Z,18.76
2018-06-19T02:53:50.098Z,18.72
2018-06-19T02:56:19.972Z,18.69
2018-06-19T02:58:49.748Z,18.67
2018-06-19T03:01:21.286Z,18.65
2018-06-19T03:03:51.024Z,19.36
2018-06-19T03:06:21.341Z,19.56
2018-06-19T03:11:40.473Z,18.91
2018-06-19T03:14:09.890Z,18.88
2018-06-19T03:16:41.786Z,18.84
2018-06-19T03:19:12.829Z,18.82
2018-06-19T03:21:43.535Z,19.53
2018-06-19T03:24:12.939Z,19.05
2018-06-19T03:26:42.177Z,18.95
2018-06-19T03:29:11.158Z,18.88
2018-06-19T03:31:40.527Z,18.81
2018-06-19T03:34:10.147Z,18.74
2018-06-19T03:36:39.285Z,18.68
2018-06-19T03:39:10.761Z,18.62
2018-06-19T03:41:40.029Z,18.57
2018-06-19T03:44:09.629Z,18.54
2018-06-19T03:46:40.661Z,18.51
2018-06-19T03:49:12.339Z,18.49
2018-06-19T03:51:41.964Z,18.46
2018-06-19T03:54:11.536Z,18.46
2018-06-19T03:56:40.880Z,18.49
2018-06-19T03:59:11.019Z,18.56
2018-06-19T04:01:40.341Z,19.43
2018-06-19T04:04:12.423Z,19.05
2018-06-19T04:06:41.385Z,19.10
2018-06-19T04:09:10.470Z,19.17
2018-06-19T04:11:40.664Z,19.24
2018-06-19T04:14:09.889Z,19.31
2018-06-19T04:16:42.898Z,20.13
2018-06-19T04:19:12.541Z,20.42
2018-06-19T04:21:41.514Z,19.94
2018-06-19T04:24:13.515Z,19.87
2018-06-19T04:26:42.837Z,19.89
2018-06-19T04:29:12.499Z,19.92
2018-06-19T04:31:42.249Z,19.96
2018-06-19T04:34:13.959Z,19.98
2018-06-19T04:36:43.708Z,20.01
2018-06-19T04:39:12.811Z,20.02
2018-06-19T04:41:41.646Z,20.03
2018-06-19T04:44:15.818Z,20.06
2018-06-19T04:46:45.759Z,20.07
2018-06-19T04:49:16.321Z,20.91
2018-06-19T04:51:45.787Z,20.47
2018-06-19T04:54:14.847Z,20.43
2018-06-19T04:56:45.442Z,20.43
2018-06-19T04:59:15.483Z,20.45
2018-06-19T05:01:45.128Z,20.52
2018-06-19T05:04:14.149Z,20.59
2018-06-19T05:06:43.626Z,20.64
2018-06-19T05:09:12.895Z,20.69
2018-06-19T05:11:42.093Z,20.76
2018-06-19T05:14:11.154Z,20.85
2018-06-19T05:16:40.802Z,21.72
2018-06-19T05:19:10.379Z,21.25
2018-06-19T05:21:40.149Z,21.18
2018-06-19T05:24:09.542Z,21.18
2018-06-19T05:26:38.488Z,21.26
2018-06-19T05:29:07.610Z,21.43
2018-06-19T05:31:36.400Z,21.54
2018-06-19T05:34:05.658Z,21.60
2018-06-19T05:36:34.811Z,21.70
2018-06-19T05:39:03.924Z,21.84
2018-06-19T05:41:36.093Z,22.94
2018-06-19T05:44:05.157Z,22.57
2018-06-19T05:46:33.948Z,22.73
2018-06-19T05:49:02.743Z,22.98
2018-06-19T05:51:31.667Z,23.17
2018-06-19T05:54:00.765Z,23.22
2018-06-19T05:56:29.447Z,23.17
2018-06-19T05:59:14.348Z,23.20
2018-06-19T06:01:43.341Z,23.28
2018-06-19T06:04:12.283Z,24.26
2018-06-19T06:06:41.048Z,23.65
2018-06-19T06:09:14.182Z,23.65
2018-06-19T06:11:43.026Z,24.70
2018-06-19T06:14:11.799Z,24.23
2018-06-19T06:16:40.746Z,23.99
2018-06-19T06:19:09.421Z,23.88
2018-06-19T06:21:38.415Z,23.95
2018-06-19T06:24:07.230Z,24.08
2018-06-19T06:26:36.496Z,24.21
2018-06-19T06:29:05.386Z,24.26
2018-06-19T06:34:21.877Z,24.19
2018-06-19T06:36:50.671Z,24.33
2018-06-19T06:39:19.476Z,24.46
2018-06-19T06:41:48.306Z,24.58
2018-06-19T06:44:17.049Z,24.75
2018-06-19T06:46:45.761Z,24.92
2018-06-19T06:49:14.529Z,25.01
2018-06-19T06:51:43.284Z,25.18
2018-06-19T06:54:12.112Z,25.35
2018-06-19T06:56:40.928Z,25.58
2018-06-19T06:59:10.373Z,25.83
2018-06-19T07:01:39.500Z,26.81
2018-06-19T07:04:08.363Z,26.33
2018-06-19T07:06:37.170Z,26.48
2018-06-19T07:09:05.961Z,26.55
2018-06-19T07:11:34.923Z,26.69
2018-06-19T07:14:04.263Z,27.53
2018-06-19T07:16:33.134Z,26.62
2018-06-19T07:19:01.895Z,27.35
2018-06-19T07:21:30.832Z,26.90
2018-06-19T07:23:59.559Z,27.82
2018-06-19T07:26:28.155Z,27.30
2018-06-19T07:28:56.915Z,27.11
2018-06-19T07:31:25.652Z,27.87
2018-06-19T07:33:59.951Z,27.29
2018-06-19T07:36:28.607Z,27.10
2018-06-19T07:39:00.804Z,27.89
2018-06-19T07:41:29.474Z,26.97
2018-06-19T07:43:58.400Z,26.76
2018-06-19T07:46:27.062Z,27.05
2018-06-19T07:48:56.139Z,27.37
2018-06-19T07:51:25.017Z,27.60
2018-06-19T07:53:53.785Z,27.36
2018-06-19T07:56:25.250Z,27.29
2018-06-19T07:58:53.955Z,27.17
2018-06-19T08:01:22.936Z,27.24
2018-06-19T08:03:51.675Z,27.55
2018-06-19T08:06:20.373Z,27.72
2018-06-19T08:08:49.097Z,28.59
2018-06-19T08:14:08.430Z,28.07
2018-06-19T08:16:37.135Z,28.01
2018-06-19T08:19:06.010Z,27.85
2018-06-19T08:21:34.738Z,29.07
2018-06-19T08:24:03.501Z,28.51
2018-06-19T08:26:32.236Z,29.41
2018-06-19T08:29:04.120Z,28.58
2018-06-19T08:31:32.877Z,28.33
2018-06-19T08:34:01.714Z,28.17
2018-06-19T08:36:30.703Z,28.18
2018-06-19T08:39:01.464Z,28.32
2018-06-19T08:41:30.154Z,28.55
2018-06-19T08:43:59.240Z,28.80
2018-06-19T08:46:36.272Z,28.75
2018-06-19T08:49:05.028Z,28.40
2018-06-19T08:51:35.467Z,29.66
2018-06-19T08:54:02.563Z,29.98
2018-06-19T08:56:31.317Z,29.28
2018-06-19T08:59:00.070Z,29.28
2018-06-19T09:01:28.899Z,29.25
2018-06-19T09:03:58.485Z,29.33
2018-06-19T09:06:27.274Z,29.54
2018-06-19T09:08:56.029Z,29.77
2018-06-19T09:11:25.066Z,29.82
2018-06-19T09:13:53.907Z,29.98
2018-06-19T09:16:22.846Z,29.90
2018-06-19T09:18:51.706Z,31.33
2018-06-19T09:21:20.418Z,31.81
2018-06-19T09:23:49.214Z,31.91
2018-06-19T09:26:17.952Z,31.05
2018-06-19T09:28:46.778Z,31.04
2018-06-19T09:31:15.616Z,31.18
2018-06-19T09:33:44.523Z,31.61
2018-06-19T09:38:51.815Z,31.29
2018-06-19T09:41:20.542Z,32.29
2018-06-19T09:43:49.285Z,31.55
2018-06-19T09:46:18.008Z,31.60
2018-06-19T09:48:46.746Z,33.21
2018-06-19T09:51:15.518Z,32.56
2018-06-19T09:53:44.419Z,32.41
2018-06-19T09:56:13.107Z,32.67
2018-06-19T09:58:42.040Z,34.11
2018-06-19T10:01:10.829Z,33.03
2018-06-19T10:03:39.674Z,32.65
2018-06-19T10:06:08.504Z,32.48
2018-06-19T10:08:37.323Z,33.77
2018-06-19T10:11:06.086Z,33.94
2018-06-19T10:13:34.825Z,33.83
2018-06-19T10:16:03.742Z,32.45
2018-06-19T10:18:32.717Z,32.23
2018-06-19T10:21:01.560Z,33.46
2018-06-19T10:23:30.281Z,32.39
2018-06-19T10:25:59.826Z,32.30
2018-06-19T10:28:30.807Z,32.26
2018-06-19T10:31:15.368Z,32.39
2018-06-19T10:33:44.171Z,32.41
2018-06-19T10:36:12.919Z,33.65
2018-06-19T10:38:41.677Z,32.62
2018-06-19T10:41:10.366Z,32.46
2018-06-19T10:43:41.621Z,32.32
2018-06-19T10:46:10.607Z,32.33
2018-06-19T10:48:39.416Z,32.75
2018-06-19T10:51:08.266Z,34.53
2018-06-19T10:53:37.000Z,33.37
2018-06-19T10:56:05.731Z,33.00
2018-06-19T10:58:34.673Z,34.37
2018-06-19T11:01:03.424Z,33.07
2018-06-19T11:03:32.282Z,32.60
2018-06-19T11:06:03.386Z,32.26
2018-06-19T11:08:32.139Z,33.23
2018-06-19T11:11:03.038Z,31.80
2018-06-19T11:13:31.962Z,31.31
2018-06-19T11:16:03.304Z,31.06
2018-06-19T11:18:32.123Z,30.89
2018-06-19T11:21:01.090Z,30.73
2018-06-19T11:23:29.867Z,30.59
2018-06-19T11:25:58.601Z,30.48
2018-06-19T11:28:27.297Z,30.37
2018-06-19T11:30:56.313Z,30.23
2018-06-19T11:33:25.028Z,30.07
2018-06-19T11:35:53.876Z,31.30
2018-06-19T11:38:22.923Z,30.28
2018-06-19T11:40:51.898Z,31.30
2018-06-19T11:43:20.608Z,30.33
2018-06-19T11:45:49.425Z,30.14
2018-06-19T11:48:18.472Z,30.18
2018-06-19T11:50:47.240Z,30.45
2018-06-19T11:53:16.013Z,30.68
2018-06-19T11:55:44.837Z,30.60
2018-06-19T11:58:13.615Z,30.39
2018-06-19T12:00:42.368Z,30.34
2018-06-19T12:03:11.100Z,30.40
2018-06-19T12:05:39.862Z,30.39
2018-06-19T12:08:16.946Z,30.39
2018-06-19T12:10:45.752Z,30.63
2018-06-19T12:13:14.465Z,30.99
2018-06-19T12:15:43.298Z,31.23
2018-06-19T12:18:12.019Z,31.47
2018-06-19T12:20:40.789Z,31.81
2018-06-19T12:23:09.562Z,32.21
2018-06-19T12:25:38.311Z,32.48
2018-06-19T12:28:07.744Z,32.76
2018-06-19T12:30:36.519Z,32.93
2018-06-19T12:33:05.254Z,34.49
2018-06-19T12:35:34.034Z,33.46
2018-06-19T12:38:02.806Z,34.29
2018-06-19T12:40:31.704Z,34.08
2018-06-19T12:43:00.396Z,32.70
2018-06-19T12:45:29.280Z,32.27
2018-06-19T12:47:57.946Z,32.01
2018-06-19T12:50:35.708Z,31.72
2018-06-19T12:53:32.075Z,31.42
2018-06-19T12:56:12.667Z,31.05
2018-06-19T12:58:43.760Z,30.60
2018-06-19T13:01:12.383Z,30.26
2018-06-19T13:04:18.411Z,30.03
2018-06-19T13:06:48.222Z,29.72
2018-06-19T13:09:16.936Z,30.61
2018-06-19T13:11:45.644Z,29.56
2018-06-19T13:14:35.793Z,30.27
2018-06-19T13:17:41.877Z,29.25
2018-06-19T13:20:43.361Z,28.93
2018-06-19T13:23:12.107Z,28.74
2018-06-19T13:25:44.595Z,28.70
2018-06-19T13:28:13.292Z,28.63
2018-06-19T13:31:28.451Z,28.66
2018-06-19T13:33:57.187Z,28.66
2018-06-19T13:36:25.920Z,28.76
2018-06-19T13:38:54.914Z,28.79
2018-06-19T13:41:54.841Z,28.77
2018-06-19T13:44:48.598Z,28.63
2018-06-19T13:47:17.714Z,28.64
2018-06-19T13:49:49.148Z,29.73
2018-06-19T13:52:18.257Z,28.95
2018-06-19T13:58:11.835Z,28.73
2018-06-19T14:00:41.793Z,28.69
2018-06-19T14:03:10.966Z,28.66
2018-06-19T14:05:42.159Z,29.66
2018-06-19T14:08:11.136Z,28.83
2018-06-19T14:10:43.222Z,28.65
2018-06-19T14:13:12.139Z,28.66
2018-06-19T14:15:42.898Z,28.62
2018-06-19T14:18:17.071Z,28.53
2018-06-19T14:20:49.753Z,28.43
2018-06-19T14:23:18.744Z,28.28
2018-06-19T14:25:47.885Z,28.24
2018-06-19T14:28:16.801Z,29.23
2018-06-19T14:30:45.352Z,28.46
2018-06-19T14:33:14.221Z,28.26
2018-06-19T14:35:42.825Z,29.23
2018-06-19T14:38:11.599Z,28.53
2018-06-19T14:40:40.358Z,28.48
2018-06-19T14:43:09.053Z,28.65
2018-06-19T14:45:37.797Z,28.83
2018-06-19T14:48:06.537Z,28.97
2018-06-19T14:50:35.283Z,29.00
2018-06-19T14:53:03.989Z,29.17
2018-06-19T14:55:32.749Z,29.31
2018-06-19T14:58:01.582Z,29.56
2018-06-19T15:00:30.330Z,29.75
2018-06-19T15:02:59.068Z,29.80
2018-06-19T15:05:27.795Z,29.82
2018-06-19T15:07:56.490Z,29.72
2018-06-19T15:10:25.228Z,29.62
2018-06-19T15:12:53.876Z,29.46
2018-06-19T15:15:22.600Z,29.40
2018-06-19T15:17:54.158Z,29.26
2018-06-19T15:20:22.866Z,29.18
2018-06-19T15:22:51.587Z,30.21
2018-06-19T15:25:20.349Z,30.29
2018-06-19T15:27:49.014Z,30.25
2018-06-19T15:30:18.022Z,29.25
2018-06-19T15:32:46.727Z,28.96
2018-06-19T15:35:15.377Z,28.78
2018-06-19T15:37:47.515Z,28.59
2018-06-19T15:40:16.149Z,28.42
2018-06-19T15:42:44.892Z,28.34
2018-06-19T15:45:13.574Z,28.21
2018-06-19T15:47:42.312Z,28.11
2018-06-19T15:50:11.145Z,28.04
2018-06-19T15:52:39.864Z,27.94
2018-06-19T15:55:08.577Z,27.93
2018-06-19T15:57:37.290Z,27.92
2018-06-19T16:00:06.031Z,27.85
2018-06-19T16:02:35.281Z,28.66
2018-06-19T16:05:03.933Z,27.92
2018-06-19T16:07:32.631Z,27.74
2018-06-19T16:10:01.332Z,27.63
2018-06-19T16:12:30.025Z,27.56
2018-06-19T16:14:58.682Z,27.53
2018-06-19T16:17:27.416Z,27.58
2018-06-19T16:19:56.155Z,28.54
2018-06-19T16:22:24.881Z,27.91
2018-06-19T16:24:53.963Z,27.75
2018-06-19T16:27:23.011Z,27.62
2018-06-19T16:29:51.886Z,27.63
2018-06-19T16:32:20.616Z,27.66
2018-06-19T16:34:49.270Z,27.63
2018-06-19T16:37:18.088Z,27.66
2018-06-19T16:39:46.771Z,27.65
2018-06-19T16:42:15.545Z,27.68
2018-06-19T16:44:44.174Z,27.70
2018-06-19T16:47:16.632Z,27.73
2018-06-19T16:49:45.245Z,27.88
2018-06-19T16:52:13.935Z,28.08
2018-06-19T16:54:42.638Z,28.39
2018-06-19T16:57:11.439Z,29.39
2018-06-19T16:59:40.124Z,28.55
2018-06-19T17:02:09.128Z,28.26
2018-06-19T17:04:37.827Z,29.19
2018-06-19T17:07:07.045Z,28.94
2018-06-19T17:09:38.803Z,30.14
2018-06-19T17:12:07.797Z,29.28
2018-06-19T17:14:36.973Z,28.94
2018-06-19T17:17:06.154Z,28.81
2018-06-19T17:19:37.577Z,28.65
2018-06-19T17:22:04.488Z,28.51
2018-06-19T17:24:37.167Z,28.33
2018-06-19T17:27:06.041Z,27.99
2018-06-19T17:29:34.982Z,27.66
2018-06-19T17:32:04.196Z,27.40
2018-06-19T17:34:33.814Z,27.21
2018-06-19T17:37:02.607Z,27.09
2018-06-19T17:39:31.313Z,26.88
2018-06-19T17:42:00.218Z,26.74
2018-06-19T17:44:29.505Z,26.63
2018-06-19T17:46:58.498Z,27.40
2018-06-19T17:49:29.484Z,26.70
2018-06-19T17:52:01.067Z,26.53
2018-06-19T17:57:21.005Z,26.34
2018-06-19T17:59:51.767Z,26.30
2018-06-19T18:02:21.272Z,26.26
2018-06-19T18:04:50.184Z,26.16
2018-06-19T18:07:19.605Z,26.12
2018-06-19T18:09:52.690Z,26.06
2018-06-19T18:12:23.083Z,25.96
2018-06-19T18:15:00.163Z,25.95
2018-06-19T18:17:29.583Z,25.94
2018-06-19T18:19:59.605Z,25.91
2018-06-19T18:22:30.965Z,26.65
2018-06-19T18:25:02.900Z,26.06
2018-06-19T18:27:31.553Z,25.88
2018-06-19T18:30:10.203Z,26.53
2018-06-19T18:32:38.911Z,25.91
2018-06-19T18:35:08.011Z,25.77
2018-06-19T18:37:36.648Z,25.67
2018-06-19T18:40:05.417Z,25.59
2018-06-19T18:42:34.399Z,25.50
2018-06-19T18:45:03.302Z,25.44
2018-06-19T18:47:32.142Z,25.37
2018-06-19T18:50:01.058Z,25.29
2018-06-19T18:52:30.220Z,25.21
2018-06-19T18:54:59.440Z,25.15
2018-06-19T18:57:28.493Z,25.09
2018-06-19T18:59:58.679Z,25.02
2018-06-19T19:02:27.376Z,24.95
2018-06-19T19:04:56.159Z,24.88
2018-06-19T19:07:25.134Z,25.51
2018-06-19T19:09:54.890Z,24.94
2018-06-19T19:12:23.711Z,24.77
2018-06-19T19:14:53.136Z,24.65
2018-06-19T19:17:24.838Z,24.50
2018-06-19T19:19:53.970Z,24.36
2018-06-19T19:22:24.669Z,24.92
2018-06-19T19:24:53.415Z,24.35
2018-06-19T19:27:25.226Z,24.17
2018-06-19T19:29:54.734Z,24.04
2018-06-19T19:32:23.703Z,24.58
2018-06-19T19:34:54.385Z,24.00
2018-06-19T19:37:25.705Z,23.79
2018-06-19T19:39:55.844Z,23.64
2018-06-19T19:42:24.494Z,23.47
2018-06-19T19:44:55.089Z,24.01
2018-06-19T19:47:26.507Z,23.42
2018-06-19T19:49:57.502Z,23.90
2018-06-19T19:52:26.152Z,23.29
2018-06-19T19:54:55.026Z,23.73
2018-06-19T19:57:26.786Z,23.11
2018-06-19T19:59:55.825Z,22.87
2018-06-19T20:02:25.046Z,22.70
2018-06-19T20:04:54.248Z,22.52
2018-06-19T20:07:23.259Z,22.38
2018-06-19T20:09:52.477Z,22.24
2018-06-19T20:12:21.351Z,22.84
2018-06-19T20:14:50.033Z,22.26
2018-06-19T20:17:18.801Z,22.05
2018-06-19T20:19:47.475Z,21.90
2018-06-19T20:22:16.252Z,21.78
2018-06-19T20:24:45.040Z,21.66
2018-06-19T20:27:20.790Z,21.54
2018-06-19T20:29:53.033Z,21.43
2018-06-19T20:32:24.517Z,21.32
2018-06-19T20:34:53.221Z,21.22
2018-06-19T20:37:22.654Z,21.12
2018-06-19T20:39:51.871Z,21.04
2018-06-19T20:42:20.693Z,21.67
2018-06-19T20:44:52.873Z,21.78
2018-06-19T20:47:22.208Z,21.19
2018-06-19T20:49:51.002Z,21.00
2018-06-19T20:52:20.132Z,20.87
2018-06-19T20:54:49.252Z,20.76
2018-06-19T20:57:18.141Z,20.66
2018-06-19T20:59:47.109Z,20.58
2018-06-19T21:02:16.091Z,20.50
2018-06-19T21:04:45.194Z,20.43
2018-06-19T21:07:14.217Z,20.35
2018-06-19T21:09:43.373Z,20.27
2018-06-19T21:12:19.534Z,20.20
2018-06-19T21:14:55.013Z,20.11
2018-06-19T21:17:30.107Z,20.74
2018-06-19T21:20:01.933Z,20.21
2018-06-19T21:22:31.699Z,20.07
2018-06-19T21:25:04.619Z,19.96
2018-06-19T21:27:33.807Z,19.86
2018-06-19T21:30:02.712Z,19.75
2018-06-19T21:32:31.411Z,19.66
2018-06-19T21:35:01.139Z,19.59
2018-06-19T21:37:30.339Z,19.51
2018-06-19T21:40:03.917Z,19.39
2018-06-19T21:42:35.738Z,19.26
2018-06-19T21:45:06.440Z,19.13
2018-06-19T21:47:35.117Z,19.02
2018-06-19T21:50:04.669Z,19.66
2018-06-19T21:52:33.679Z,19.10
2018-06-19T21:55:05.285Z,18.93
2018-06-19T21:57:38.906Z,19.60
2018-06-19T22:00:07.917Z,19.12
2018-06-19T22:02:38.045Z,19.06
2018-06-19T22:05:07.083Z,19.67
2018-06-19T22:07:36.068Z,19.79
2018-06-19T22:10:05.242Z,19.26
2018-06-19T22:12:34.366Z,19.11
2018-06-19T22:15:03.489Z,19.02
2018-06-19T22:17:32.741Z,18.94
2018-06-19T22:20:03.224Z,18.86
2018-06-19T22:22:32.610Z,18.80
2018-06-19T22:25:03.647Z,18.75
2018-06-19T22:27:33.936Z,18.71
2018-06-19T22:30:03.136Z,18.67
2018-06-19T22:32:32.484Z,18.63
2018-06-19T22:35:02.053Z,18.58
2018-06-19T22:37:35.254Z,18.54
2018-06-19T22:40:04.730Z,18.48
2018-06-19T22:42:34.380Z,19.12
2018-06-19T22:45:03.309Z,18.62
2018-06-19T22:47:32.400Z,18.47
2018-06-19T22:50:01.623Z,18.41
2018-06-19T22:52:31.407Z,18.36
2018-06-19T22:55:00.547Z,18.99
2018-06-19T22:57:29.279Z,18.48
2018-06-19T22:59:58.070Z,18.36
2018-06-19T23:02:26.845Z,18.30
2018-06-19T23:04:55.716Z,18.26
2018-06-19T23:07:24.444Z,18.19
2018-06-19T23:09:54.412Z,18.16
2018-06-19T23:12:23.055Z,18.12
2018-06-19T23:14:52.880Z,18.10
2018-06-19T23:17:21.474Z,18.09
2018-06-19T23:19:50.175Z,18.06
2018-06-19T23:22:19.171Z,18.02
2018-06-19T23:24:48.072Z,17.97
2018-06-19T23:27:16.907Z,17.91
2018-06-19T23:29:45.692Z,17.87
2018-06-19T23:32:14.725Z,17.83
2018-06-19T23:34:43.648Z,18.50
2018-06-19T23:37:13.073Z,18.05
2018-06-19T23:39:45.612Z,17.98
2018-06-19T23:42:14.573Z,17.95
2018-06-19T23:44:43.793Z,17.93
2018-06-19T23:47:14.150Z,17.91
2018-06-19T23:49:42.812Z,17.90
2018-06-19T23:52:11.779Z,17.89
2018-06-19T23:54:40.306Z,17.90
2018-06-19T23:57:09.304Z,17.89
2018-06-19T23:59:38.103Z,17.89
